createdAt,value
2018-10-19T18:55:27.176Z,22.73
2018-10-19T19:05:20.750Z,21.33
2018-10-19T19:07:49.803Z,19.70
2018-10-19T19:10:18.817Z,20.80
2018-10-19T19:12:47.908Z,21.60
2018-10-19T19:15:19.896Z,20.27
2018-10-19T19:17:48.888Z,19.60
2018-10-19T19:20:24.259Z,20.30
2018-10-19T19:22:53.267Z,19.83
2018-10-19T19:25:27.572Z,20.70
2018-10-19T19:27:56.793Z,19.80
2018-10-19T19:30:26.028Z,20.60
2018-10-19T19:33:00.405Z,21.43
2018-10-19T19:35:29.818Z,21.27
2018-10-19T19:37:58.886Z,23.07
2018-10-19T19:40:27.992Z,22.13
2018-10-19T19:42:58.345Z,23.10
2018-10-19T19:45:28.737Z,24.37
2018-10-19T19:48:03.153Z,23.43
2018-10-19T19:50:32.238Z,24.03
2018-10-19T19:53:01.294Z,20.53
2018-10-19T19:55:30.309Z,20.40
2018-10-19T19:57:59.575Z,22.80
2018-10-19T20:00:28.613Z,19.80
2018-10-19T20:02:57.682Z,20.80
2018-10-19T20:05:26.791Z,21.60
2018-10-19T20:08:00.239Z,18.93
2018-10-19T20:10:29.272Z,20.77
2018-10-19T20:12:58.478Z,19.90
2018-10-19T20:15:28.484Z,20.20
2018-10-19T20:17:57.491Z,22.63
2018-10-19T20:20:26.599Z,20.87
2018-10-19T20:22:56.074Z,18.67
2018-10-19T20:25:25.669Z,20.20
2018-10-19T20:27:54.732Z,20.57
2018-10-19T20:30:23.854Z,19.37
2018-10-19T20:32:53.470Z,18.17
2018-10-19T20:35:22.482Z,18.93
2018-10-19T20:37:51.582Z,19.80
2018-10-19T20:40:20.746Z,19.23
2018-10-19T20:42:49.747Z,19.43
2018-10-19T20:45:19.072Z,18.50
2018-10-19T20:47:48.144Z,18.23
2018-10-19T20:50:17.350Z,17.40
2018-10-19T20:52:46.233Z,18.53
2018-10-19T20:55:17.001Z,17.83
2018-10-19T20:57:46.092Z,17.70
2018-10-19T21:00:15.490Z,16.73
2018-10-19T21:02:44.721Z,16.30
2018-10-19T21:05:13.855Z,16.03
2018-10-19T21:07:42.808Z,16.27
2018-10-19T21:10:13.115Z,15.30
2018-10-19T21:12:42.220Z,15.53
2018-10-19T21:15:13.245Z,14.23
2018-10-19T21:17:42.720Z,14.17
2018-10-19T21:20:12.497Z,15.73
2018-10-19T21:22:41.505Z,15.47
2018-10-19T21:25:11.770Z,14.90
2018-10-19T21:27:41.007Z,13.90
2018-10-19T21:30:11.645Z,13.97
2018-10-19T21:32:41.126Z,15.33
2018-10-19T21:35:10.229Z,16.77
2018-10-19T21:37:39.346Z,15.57
2018-10-19T21:40:08.453Z,15.23
2018-10-19T21:42:37.537Z,16.17
2018-10-19T21:45:07.010Z,16.23
2018-10-19T21:47:36.969Z,15.77
2018-10-19T21:50:07.003Z,16.00
2018-10-19T21:52:36.084Z,17.07
2018-10-19T21:55:05.441Z,16.00
2018-10-19T21:57:34.556Z,14.97
2018-10-19T22:00:03.657Z,14.80
2018-10-19T22:02:32.697Z,16.60
2018-10-19T22:05:01.794Z,15.80
2018-10-19T22:07:30.996Z,16.47
2018-10-19T22:10:00.191Z,16.47
2018-10-19T22:12:29.291Z,17.03
2018-10-19T22:14:58.274Z,17.97
2018-10-19T22:17:28.211Z,17.57
2018-10-19T22:19:57.231Z,17.37
2018-10-19T22:22:26.295Z,16.77
2018-10-19T22:24:55.447Z,17.50
2018-10-19T22:27:24.656Z,18.20
2018-10-19T22:29:53.721Z,17.30
2018-10-19T22:32:22.722Z,16.43
2018-10-19T22:34:51.802Z,19.00
2018-10-19T22:37:20.837Z,17.80
2018-10-19T22:39:49.931Z,17.93
2018-10-19T22:42:18.947Z,17.70
2018-10-19T22:44:47.989Z,18.90
2018-10-19T22:47:17.079Z,18.10
2018-10-19T22:49:46.003Z,17.70
2018-10-19T22:52:15.006Z,18.90
2018-10-19T22:54:44.496Z,18.33
2018-10-19T22:57:13.593Z,17.23
2018-10-19T22:59:42.594Z,18.87
2018-10-19T23:02:11.650Z,18.63
2018-10-19T23:04:40.655Z,19.83
2018-10-19T23:07:09.720Z,21.37
2018-10-19T23:09:38.809Z,19.47
2018-10-19T23:12:07.757Z,20.40
2018-10-19T23:14:36.797Z,20.40
2018-10-19T23:17:05.848Z,19.43
2018-10-19T23:19:34.836Z,19.80
2018-10-19T23:22:03.878Z,19.37
2018-10-19T23:24:32.869Z,18.30
2018-10-19T23:27:02.014Z,22.33
2018-10-19T23:29:31.397Z,24.10
2018-10-19T23:32:00.424Z,20.90
2018-10-19T23:34:29.472Z,21.13
2018-10-19T23:36:58.709Z,22.03
2018-10-19T23:39:27.787Z,21.03
2018-10-19T23:41:56.784Z,22.07
2018-10-19T23:44:25.784Z,21.43
2018-10-19T23:46:54.834Z,21.07
2018-10-19T23:49:23.832Z,25.30
2018-10-19T23:51:52.832Z,22.77
2018-10-19T23:54:22.495Z,26.00
2018-10-19T23:56:51.486Z,25.80
2018-10-19T23:59:20.534Z,28.43
